Time;durP1;ratioP1;P1;durP2;ratioP2;P2;SDS_P1;SDS_P2;PMS_P1;PMS_P2;Temp;Humidity;BMP_temperature;BMP_pressure;BME280_temperature;BME280_humidity;BME280_pressure;Samples;Min_cycle;Max_cycle;Signal;HPM_P1;HPM_P2
2022/10/12 00:00:08;;;;;;;14.35;12.98;;;;;;;;;;6275430;22;20015;-86
2022/10/12 00:02:34;;;;;;;14.18;12.77;;;;;;;;;;6274117;22;20015;-85
2022/10/12 00:05:00;;;;;;;14.98;13.45;;;;;;;;;;6275681;22;20057;-85
2022/10/12 00:07:26;;;;;;;14.52;13.10;;;;;;;;;;6274189;22;20030;-85
2022/10/12 00:09:52;;;;;;;13.60;12.27;;;;;;;;;;6275296;22;20050;-86
2022/10/12 00:12:18;;;;;;;13.38;12.05;;;;;;;;;;6275533;22;20446;-85
2022/10/12 00:14:44;;;;;;;15.35;12.05;;;;;;;;;;6275296;22;20000;-85
2022/10/12 00:17:10;;;;;;;13.65;12.38;;;;;;;;;;6273909;22;20062;-85
2022/10/12 00:19:36;;;;;;;12.70;11.50;;;;;;;;;;6273811;22;20008;-85
2022/10/12 00:22:02;;;;;;;15.18;11.93;;;;;;;;;;6275413;22;20339;-85
2022/10/12 00:24:29;;;;;;;13.68;11.55;;;;;;;;;;6275469;22;20000;-85
2022/10/12 00:26:55;;;;;;;13.52;12.23;;;;;;;;;;6275265;22;20439;-85
2022/10/12 00:29:21;;;;;;;12.63;11.32;;;;;;;;;;6275437;22;20038;-85
2022/10/12 00:31:47;;;;;;;13.90;11.57;;;;;;;;;;6275215;22;20004;-85
2022/10/12 00:34:13;;;;;;;14.85;11.60;;;;;;;;;;6275548;22;20419;-85
2022/10/12 00:36:39;;;;;;;13.23;11.82;;;;;;;;;;6275325;22;20034;-85
2022/10/12 00:39:06;;;;;;;13.73;12.18;;;;;;;;;;6275379;22;20019;-85
2022/10/12 00:41:35;;;;;;;13.07;11.73;;;;;;;;;;6275412;22;20038;-85
2022/10/12 00:44:01;;;;;;;13.70;12.30;;;;;;;;;;6273599;22;20008;-85
2022/10/12 00:46:27;;;;;;;13.75;12.35;;;;;;;;;;6275386;22;20000;-85
2022/10/12 00:48:57;;;;;;;15.85;12.90;;;;;;;;;;6275062;22;20443;-84
2022/10/12 00:51:24;;;;;;;14.52;12.55;;;;;;;;;;6275353;22;20445;-85
2022/10/12 00:53:54;;;;;;;13.73;11.45;;;;;;;;;;6276171;22;20332;-86
2022/10/12 00:56:22;;;;;;;13.88;12.48;;;;;;;;;;6277392;22;20489;-85
2022/10/12 00:58:48;;;;;;;13.63;12.23;;;;;;;;;;6276854;22;20008;-84
2022/10/12 01:01:15;;;;;;;12.57;11.38;;;;;;;;;;6277308;22;20011;-85
2022/10/12 01:03:41;;;;;;;13.32;11.82;;;;;;;;;;6276985;22;20000;-84
2022/10/12 01:06:07;;;;;;;13.27;11.57;;;;;;;;;;6275597;22;20372;-84
2022/10/12 01:08:34;;;;;;;13.45;11.90;;;;;;;;;;6277081;22;20446;-85
2022/10/12 01:11:00;;;;;;;15.05;11.32;;;;;;;;;;6276806;22;20004;-84
2022/10/12 01:13:26;;;;;;;14.90;11.57;;;;;;;;;;6277108;22;20008;-85
2022/10/12 01:16:01;;;;;;;13.35;11.43;;;;;;;;;;6276769;22;20000;-85
2022/10/12 01:18:32;;;;;;;14.20;11.95;;;;;;;;;;6277154;22;19999;-84
2022/10/12 01:21:08;;;;;;;15.77;13.10;;;;;;;;;;6277572;22;20008;-84
2022/10/12 01:23:38;;;;;;;12.23;11.05;;;;;;;;;;6275385;22;20012;-84
2022/10/12 01:26:30;;;;;;;13.82;12.43;;;;;;;;;;6275501;22;20128;-84
2022/10/12 01:29:15;;;;;;;13.32;12.02;;;;;;;;;;6240873;22;20062;-84
2022/10/12 01:31:49;;;;;;;13.40;12.10;;;;;;;;;;6275352;22;20007;-84
2022/10/12 01:34:15;;;;;;;13.20;11.90;;;;;;;;;;6276987;22;19999;-84
2022/10/12 01:36:44;;;;;;;14.23;12.68;;;;;;;;;;6275371;22;20049;-85
2022/10/12 01:39:13;;;;;;;16.55;12.75;;;;;;;;;;6276873;22;20018;-84
2022/10/12 01:41:43;;;;;;;14.25;12.15;;;;;;;;;;6276940;22;20011;-84
2022/10/12 01:44:10;;;;;;;13.70;12.40;;;;;;;;;;6275214;22;20442;-84
2022/10/12 01:46:39;;;;;;;13.95;12.55;;;;;;;;;;6276809;22;20008;-84
2022/10/12 01:49:05;;;;;;;16.30;13.40;;;;;;;;;;6276784;22;20008;-84
2022/10/12 01:51:37;;;;;;;14.07;12.30;;;;;;;;;;6275567;22;20003;-85
2022/10/12 01:54:22;;;;;;;14.40;12.73;;;;;;;;;;6275243;22;20003;-84
2022/10/12 01:56:55;;;;;;;13.65;11.45;;;;;;;;;;6275104;22;20312;-85
2022/10/12 01:59:41;;;;;;;13.68;12.20;;;;;;;;;;6276217;22;20068;-85
2022/10/12 02:02:28;;;;;;;15.20;12.32;;;;;;;;;;6274436;22;20335;-84
2022/10/12 02:05:12;;;;;;;13.32;12.13;;;;;;;;;;6265809;22;20011;-85
2022/10/12 02:07:39;;;;;;;;;;;;;;;;;;6275130;22;20095;-84
2022/10/12 02:10:06;;;;;;;12.07;10.80;;;;;;;;;;6275001;22;19903;-84
2022/10/12 02:12:33;;;;;;;15.10;13.07;;;;;;;;;;6276236;22;20028;-84
2022/10/12 02:15:02;;;;;;;13.27;11.98;;;;;;;;;;6276421;22;20424;-85
2022/10/12 02:17:29;;;;;;;13.43;12.13;;;;;;;;;;6276335;22;19996;-85
2022/10/12 02:19:56;;;;;;;12.95;11.50;;;;;;;;;;6276717;22;20011;-84
2022/10/12 02:22:24;;;;;;;12.48;10.45;;;;;;;;;;6276412;22;20015;-85
2022/10/12 02:24:51;;;;;;;13.70;10.27;;;;;;;;;;6274423;22;20018;-85
2022/10/12 02:27:18;;;;;;;11.35;10.00;;;;;;;;;;6276299;22;20065;-85
2022/10/12 02:29:45;;;;;;;11.93;10.70;;;;;;;;;;6276065;22;20420;-85
2022/10/12 02:32:50;;;;;;;12.13;10.85;;;;;;;;;;6276494;22;20003;-85
2022/10/12 02:35:34;;;;;;;13.82;11.50;;;;;;;;;;6212545;23;20036;-85
2022/10/12 02:38:10;;;;;;;11.70;10.30;;;;;;;;;;6212568;23;20008;-85
2022/10/12 02:40:38;;;;;;;13.35;12.15;;;;;;;;;;6212567;23;20019;-84
2022/10/12 02:43:08;;;;;;;11.63;10.45;;;;;;;;;;6212788;23;20062;-85
2022/10/12 02:45:34;;;;;;;12.00;10.80;;;;;;;;;;6215903;22;20012;-85
2022/10/12 02:48:01;;;;;;;14.27;11.85;;;;;;;;;;6276032;22;20007;-85
2022/10/12 02:50:27;;;;;;;11.15;10.05;;;;;;;;;;6276488;22;20427;-85
2022/10/12 02:52:54;;;;;;;11.52;10.40;;;;;;;;;;6275877;22;20000;-85
2022/10/12 02:55:20;;;;;;;11.93;10.77;;;;;;;;;;6276529;22;20010;-85
2022/10/12 02:57:46;;;;;;;12.85;10.85;;;;;;;;;;6275764;22;20031;-85
2022/10/12 03:00:12;;;;;;;12.52;11.32;;;;;;;;;;6275876;22;20015;-85
2022/10/12 03:02:38;;;;;;;13.05;11.75;;;;;;;;;;6274274;22;20094;-85
2022/10/12 03:05:05;;;;;;;12.90;11.00;;;;;;;;;;6276335;22;20000;-85
2022/10/12 03:07:31;;;;;;;12.85;11.55;;;;;;;;;;6275949;22;20027;-85
2022/10/12 03:09:57;;;;;;;13.93;12.55;;;;;;;;;;6275600;22;20458;-85
2022/10/12 03:12:23;;;;;;;13.00;11.80;;;;;;;;;;6276105;22;20054;-85
2022/10/12 03:14:49;;;;;;;11.80;10.60;;;;;;;;;;6274332;22;20015;-85
2022/10/12 03:17:15;;;;;;;11.45;10.38;;;;;;;;;;6274842;22;20004;-85
2022/10/12 03:19:41;;;;;;;15.05;13.50;;;;;;;;;;6274590;22;20046;-84
2022/10/12 03:22:07;;;;;;;12.90;11.65;;;;;;;;;;6275755;22;20004;-85
2022/10/12 03:24:33;;;;;;;12.93;11.65;;;;;;;;;;6275969;22;20000;-85
2022/10/12 03:27:00;;;;;;;11.20;10.05;;;;;;;;;;6275475;22;20370;-84
2022/10/12 03:29:26;;;;;;;10.45;9.45;;;;;;;;;;6275864;22;20008;-85
2022/10/12 03:31:52;;;;;;;13.27;10.77;;;;;;;;;;6274103;22;20030;-84
2022/10/12 03:34:18;;;;;;;11.48;10.27;;;;;;;;;;6275984;22;20004;-85
2022/10/12 03:36:44;;;;;;;12.40;10.73;;;;;;;;;;6275749;22;20000;-85
2022/10/12 03:39:10;;;;;;;13.00;11.70;;;;;;;;;;6275462;22;19991;-85
2022/10/12 03:41:37;;;;;;;12.57;11.27;;;;;;;;;;6275847;22;20003;-85
2022/10/12 03:44:03;;;;;;;12.52;11.30;;;;;;;;;;6274954;22;20066;-84
2022/10/12 03:46:29;;;;;;;12.30;11.20;;;;;;;;;;6275512;22;20003;-85
2022/10/12 03:48:55;;;;;;;13.50;12.10;;;;;;;;;;6275521;22;20011;-85
2022/10/12 03:51:21;;;;;;;12.15;10.82;;;;;;;;;;6275604;22;20457;-85
2022/10/12 03:53:47;;;;;;;12.77;11.52;;;;;;;;;;6275769;22;20000;-84
2022/10/12 03:56:13;;;;;;;11.23;10.23;;;;;;;;;;6275052;22;20378;-85
2022/10/12 03:58:39;;;;;;;11.75;10.63;;;;;;;;;;6273717;22;20035;-85
2022/10/12 04:01:05;;;;;;;13.13;11.82;;;;;;;;;;6274112;22;20003;-85
2022/10/12 04:03:31;;;;;;;13.57;12.27;;;;;;;;;;6274892;22;20312;-85
2022/10/12 04:05:58;;;;;;;12.20;11.00;;;;;;;;;;6275604;22;20078;-85
2022/10/12 04:08:25;;;;;;;13.65;12.35;;;;;;;;;;6275477;22;20087;-84
2022/10/12 04:10:51;;;;;;;13.38;11.98;;;;;;;;;;6273945;22;20061;-84
2022/10/12 04:13:18;;;;;;;15.63;12.68;;;;;;;;;;6275244;22;20300;-85
2022/10/12 04:15:44;;;;;;;14.80;13.30;;;;;;;;;;6274482;22;20025;-85
2022/10/12 04:18:11;;;;;;;12.50;11.30;;;;;;;;;;6275417;22;20023;-85
2022/10/12 04:20:37;;;;;;;14.10;12.60;;;;;;;;;;6274093;22;20019;-84
2022/10/12 04:23:03;;;;;;;12.75;11.40;;;;;;;;;;6275446;22;20510;-85
2022/10/12 04:25:29;;;;;;;13.60;12.30;;;;;;;;;;6275432;22;20343;-85
2022/10/12 04:27:55;;;;;;;13.50;12.20;;;;;;;;;;6276159;22;20451;-84
2022/10/12 04:30:21;;;;;;;12.73;11.43;;;;;;;;;;6275828;22;20008;-84
2022/10/12 04:32:47;;;;;;;15.68;13.95;;;;;;;;;;6276050;22;20008;-84
2022/10/12 04:35:14;;;;;;;15.25;13.50;;;;;;;;;;6277437;22;20011;-82
2022/10/12 04:37:40;;;;;;;14.27;12.77;;;;;;;;;;6277538;22;20057;-84
2022/10/12 04:40:06;;;;;;;14.35;12.88;;;;;;;;;;6277429;22;20008;-83
2022/10/12 04:42:32;;;;;;;15.23;13.82;;;;;;;;;;6275629;22;20335;-83
2022/10/12 04:44:58;;;;;;;17.05;15.35;;;;;;;;;;6277637;22;20071;-84
2022/10/12 04:47:25;;;;;;;17.55;15.48;;;;;;;;;;6277028;22;20004;-83
2022/10/12 04:49:51;;;;;;;15.73;14.07;;;;;;;;;;6275907;22;20007;-84
2022/10/12 04:52:17;;;;;;;16.92;14.20;;;;;;;;;;6276957;22;20004;-84
2022/10/12 04:54:43;;;;;;;15.65;14.05;;;;;;;;;;6277853;22;20003;-89
2022/10/12 04:57:09;;;;;;;15.85;13.73;;;;;;;;;;6277632;22;20048;-84
2022/10/12 04:59:35;;;;;;;15.10;13.48;;;;;;;;;;6277127;22;20446;-84
2022/10/12 05:02:01;;;;;;;14.52;13.13;;;;;;;;;;6277301;22;20003;-82
2022/10/12 05:04:27;;;;;;;14.13;12.73;;;;;;;;;;6277149;22;20003;-81
2022/10/12 05:06:53;;;;;;;13.43;11.80;;;;;;;;;;6277396;22;20728;-87
2022/10/12 05:09:20;;;;;;;16.27;13.15;;;;;;;;;;6277353;22;20012;-85
2022/10/12 05:11:46;;;;;;;13.65;12.25;;;;;;;;;;6276770;22;20004;-84
2022/10/12 05:14:12;;;;;;;14.73;13.13;;;;;;;;;;6275778;22;20350;-86
2022/10/12 05:16:38;;;;;;;12.57;11.25;;;;;;;;;;6274649;22;20022;-87
2022/10/12 05:19:04;;;;;;;13.18;11.80;;;;;;;;;;6275361;22;20018;-87
2022/10/12 05:21:30;;;;;;;53.88;45.90;;;;;;;;;;6276662;22;20435;-85
2022/10/12 05:23:56;;;;;;;22.65;20.20;;;;;;;;;;6275789;22;20011;-84
2022/10/12 05:26:22;;;;;;;14.90;13.30;;;;;;;;;;6273339;22;20101;-84
2022/10/12 05:28:48;;;;;;;13.75;12.30;;;;;;;;;;6275007;22;20103;-85
2022/10/12 05:31:24;;;;;;;14.05;12.65;;;;;;;;;;6275348;22;20481;-89
2022/10/12 05:33:50;;;;;;;16.48;13.93;;;;;;;;;;6274396;22;20089;-87
2022/10/12 05:36:16;;;;;;;14.95;13.55;;;;;;;;;;6275494;22;20004;-84
2022/10/12 05:38:42;;;;;;;13.23;11.82;;;;;;;;;;6271618;22;20011;-82
2022/10/12 05:41:09;;;;;;;11.02;9.93;;;;;;;;;;6275248;22;20000;-83
2022/10/12 05:43:55;;;;;;;11.07;9.98;;;;;;;;;;6275460;22;20004;-84
2022/10/12 05:46:43;;;;;;;11.82;10.68;;;;;;;;;;6197965;23;20001;-85
2022/10/12 05:49:33;;;;;;;;;;;;;;;;;;;;;
2022/10/12 05:52:03;;;;;;;11.77;10.18;;;;;;;;;;6210892;23;20072;-83
2022/10/12 05:54:38;;;;;;;11.95;10.70;;;;;;;;;;6209452;23;20103;-86
2022/10/12 05:57:30;;;;;;;31.05;27.88;;;;;;;;;;6227670;22;20008;-83
2022/10/12 06:00:01;;;;;;;30.80;27.42;;;;;;;;;;6210037;23;20479;-84
2022/10/12 06:02:28;;;;;;;26.85;23.85;;;;;;;;;;6185531;23;20012;-82
2022/10/12 06:04:54;;;;;;;28.98;26.02;;;;;;;;;;6210141;23;20460;-81
2022/10/12 06:07:20;;;;;;;25.08;22.45;;;;;;;;;;6208543;23;20008;-80
2022/10/12 06:09:47;;;;;;;23.75;21.20;;;;;;;;;;6210482;23;20084;-84
2022/10/12 06:12:15;;;;;;;43.67;26.25;;;;;;;;;;6302146;22;20531;-79
2022/10/12 06:14:41;;;;;;;217.43;72.85;;;;;;;;;;6278531;22;20434;-80
2022/10/12 06:17:08;;;;;;;261.90;84.13;;;;;;;;;;6304549;22;20000;-81
2022/10/12 06:19:34;;;;;;;400.58;126.28;;;;;;;;;;6277856;22;19995;-80
2022/10/12 06:22:00;;;;;;;214.15;69.85;;;;;;;;;;6305002;22;20045;-81
2022/10/12 06:24:26;;;;;;;175.60;59.65;;;;;;;;;;6305074;22;20331;-79
2022/10/12 06:26:53;;;;;;;78.95;29.17;;;;;;;;;;6303938;22;19999;-79
2022/10/12 06:29:22;;;;;;;47.88;22.17;;;;;;;;;;6304736;22;19995;-80
2022/10/12 06:31:48;;;;;;;45.63;21.30;;;;;;;;;;6304935;22;20589;-80
2022/10/12 06:34:14;;;;;;;112.93;42.28;;;;;;;;;;6304557;22;20010;-79
2022/10/12 06:36:40;;;;;;;151.82;51.25;;;;;;;;;;6276216;22;20339;-79
2022/10/12 06:39:06;;;;;;;181.80;62.42;;;;;;;;;;6304715;22;20008;-81
2022/10/12 06:41:32;;;;;;;117.32;44.22;;;;;;;;;;6277901;22;20312;-81
2022/10/12 06:43:58;;;;;;;78.60;31.13;;;;;;;;;;6304601;22;20003;-82
2022/10/12 06:46:25;;;;;;;41.85;19.88;;;;;;;;;;6304330;22;20051;-81
2022/10/12 06:48:51;;;;;;;27.65;15.25;;;;;;;;;;6304225;22;20031;-81
2022/10/12 06:51:18;;;;;;;24.45;14.52;;;;;;;;;;6303635;22;19999;-81
2022/10/12 06:53:44;;;;;;;19.40;12.95;;;;;;;;;;6305604;22;20027;-78
2022/10/12 06:56:13;;;;;;;21.90;13.15;;;;;;;;;;6276321;22;20012;-81
2022/10/12 06:58:40;;;;;;;15.18;11.00;;;;;;;;;;6275448;22;20011;-78
2022/10/12 07:01:09;;;;;;;15.35;11.05;;;;;;;;;;6303080;22;20002;-80
2022/10/12 07:03:35;;;;;;;13.07;10.93;;;;;;;;;;6304677;22;19999;-80
2022/10/12 07:06:12;;;;;;;10.88;9.73;;;;;;;;;;6277047;22;20338;-80
2022/10/12 07:08:38;;;;;;;21.77;19.88;;;;;;;;;;6302258;22;20011;-80
2022/10/12 07:11:05;;;;;;;156.98;141.98;;;;;;;;;;6305236;22;20122;-82
2022/10/12 07:13:31;;;;;;;32.22;29.15;;;;;;;;;;6305092;22;20106;-82
2022/10/12 07:15:57;;;;;;;12.70;11.43;;;;;;;;;;6304945;22;19999;-81
2022/10/12 07:18:23;;;;;;;20.13;13.90;;;;;;;;;;6304426;22;20052;-80
2022/10/12 07:20:49;;;;;;;12.77;11.50;;;;;;;;;;6305180;22;20010;-80
2022/10/12 07:23:16;;;;;;;11.93;9.60;;;;;;;;;;6303652;22;20014;-81
2022/10/12 07:25:48;;;;;;;10.63;9.27;;;;;;;;;;6304863;22;20003;-81
2022/10/12 07:28:14;;;;;;;10.50;9.23;;;;;;;;;;6303311;22;20335;-78
2022/10/12 07:30:43;;;;;;;10.85;9.75;;;;;;;;;;6304712;22;20442;-81
2022/10/12 07:33:09;;;;;;;13.38;9.95;;;;;;;;;;6303869;22;20002;-79
2022/10/12 07:35:35;;;;;;;20.38;14.73;;;;;;;;;;6305072;22;20007;-79
2022/10/12 07:38:01;;;;;;;17.60;13.68;;;;;;;;;;6304842;22;20014;-79
2022/10/12 07:40:28;;;;;;;12.25;10.00;;;;;;;;;;6303473;22;20011;-81
2022/10/12 07:42:54;;;;;;;12.18;10.60;;;;;;;;;;6303990;22;20010;-80
2022/10/12 07:45:27;;;;;;;11.25;8.98;;;;;;;;;;6303635;22;20098;-80
2022/10/12 07:47:54;;;;;;;9.82;8.20;;;;;;;;;;6304362;22;20011;-83
2022/10/12 07:50:20;;;;;;;10.88;9.27;;;;;;;;;;6303738;22;20368;-82
2022/10/12 07:52:49;;;;;;;10.55;8.85;;;;;;;;;;6304572;22;20027;-79
2022/10/12 07:55:15;;;;;;;16.73;15.18;;;;;;;;;;6304433;22;20473;-80
2022/10/12 07:57:43;;;;;;;34.15;30.77;;;;;;;;;;6304599;22;20003;-81
2022/10/12 08:00:12;;;;;;;27.15;24.55;;;;;;;;;;6277202;22;20011;-80
2022/10/12 08:02:39;;;;;;;17.80;15.95;;;;;;;;;;6302932;22;20059;-81
2022/10/12 08:05:05;;;;;;;12.10;10.32;;;;;;;;;;6304158;22;19999;-81
2022/10/12 08:07:31;;;;;;;11.27;9.35;;;;;;;;;;6304483;22;20367;-80
2022/10/12 08:09:57;;;;;;;12.80;8.80;;;;;;;;;;6304973;22;20370;-80
2022/10/12 08:12:23;;;;;;;13.60;12.30;;;;;;;;;;6304199;22;19995;-79
2022/10/12 08:14:49;;;;;;;16.02;14.60;;;;;;;;;;6304898;22;20041;-79
2022/10/12 08:17:15;;;;;;;22.92;20.63;;;;;;;;;;6304985;22;20267;-81
2022/10/12 08:19:41;;;;;;;17.95;14.35;;;;;;;;;;6304673;22;20021;-80
2022/10/12 08:22:10;;;;;;;62.80;28.58;;;;;;;;;;6304340;22;20049;-85
2022/10/12 08:24:40;;;;;;;141.57;49.75;;;;;;;;;;6304469;22;20008;-82
2022/10/12 08:27:10;;;;;;;80.28;33.88;;;;;;;;;;6304946;22;20441;-80
2022/10/12 08:29:38;;;;;;;173.80;61.70;;;;;;;;;;6303778;22;20394;-80
2022/10/12 08:32:22;;;;;;;199.95;69.68;;;;;;;;;;6277163;22;20003;-83
2022/10/12 08:34:50;;;;;;;228.02;78.95;;;;;;;;;;6303794;22;20045;-82
2022/10/12 08:37:22;;;;;;;256.40;91.65;;;;;;;;;;6303494;22;20014;-82
2022/10/12 08:39:48;;;;;;;169.18;62.63;;;;;;;;;;6303784;22;20435;-82
2022/10/12 08:42:24;;;;;;;135.57;51.28;;;;;;;;;;6303815;22;20308;-84
2022/10/12 08:45:02;;;;;;;121.50;47.83;;;;;;;;;;6303998;22;20331;-80
2022/10/12 08:47:40;;;;;;;103.45;42.92;;;;;;;;;;6303436;22;20061;-81
2022/10/12 08:50:12;;;;;;;89.18;37.10;;;;;;;;;;6304548;22;20003;-82
2022/10/12 08:52:57;;;;;;;92.68;38.92;;;;;;;;;;6303327;22;19999;-82
2022/10/12 08:55:28;;;;;;;31.08;18.40;;;;;;;;;;6304272;22;20439;-81
2022/10/12 08:57:54;;;;;;;76.85;31.65;;;;;;;;;;6303426;22;20707;-78
2022/10/12 09:00:20;;;;;;;70.72;33.13;;;;;;;;;;6303740;22;20012;-79
2022/10/12 09:03:05;;;;;;;68.45;30.75;;;;;;;;;;6304136;22;20007;-79
2022/10/12 09:05:43;;;;;;;23.85;17.10;;;;;;;;;;6303802;22;20074;-81
2022/10/12 09:08:12;;;;;;;57.75;27.98;;;;;;;;;;6304577;22;20003;-79
2022/10/12 09:10:53;;;;;;;87.43;37.60;;;;;;;;;;6303557;22;20006;-80
2022/10/12 09:13:38;;;;;;;67.38;31.00;;;;;;;;;;6304007;22;20066;-79
2022/10/12 09:16:06;;;;;;;104.43;45.53;;;;;;;;;;6306131;22;20339;-80
2022/10/12 09:18:44;;;;;;;111.88;47.72;;;;;;;;;;6306281;22;20053;-80
2022/10/12 09:21:15;;;;;;;113.95;46.55;;;;;;;;;;6306068;22;20018;-81
2022/10/12 09:23:43;;;;;;;384.52;156.57;;;;;;;;;;6304695;22;20052;-81
2022/10/12 09:26:15;;;;;;;225.75;95.30;;;;;;;;;;6305936;22;19999;-80
2022/10/12 09:28:42;;;;;;;170.18;71.20;;;;;;;;;;6305209;22;20022;-79
2022/10/12 09:31:11;;;;;;;209.77;77.63;;;;;;;;;;6306445;22;20034;-79
2022/10/12 09:33:57;;;;;;;216.13;77.88;;;;;;;;;;6305445;22;20026;-79
2022/10/12 09:36:26;;;;;;;115.10;45.58;;;;;;;;;;6305174;22;19995;-81
2022/10/12 09:38:52;;;;;;;161.57;58.63;;;;;;;;;;6306004;22;20512;-80
2022/10/12 09:41:47;;;;;;;113.13;44.08;;;;;;;;;;6304827;22;20052;-80
2022/10/12 09:44:19;;;;;;;70.05;31.92;;;;;;;;;;6278714;22;20011;-82
2022/10/12 09:46:49;;;;;;;39.35;20.38;;;;;;;;;;6277210;22;20023;-80
2022/10/12 09:49:15;;;;;;;37.70;20.13;;;;;;;;;;6305778;22;20530;-82
2022/10/12 09:51:41;;;;;;;35.13;18.88;;;;;;;;;;6306221;22;20010;-80
2022/10/12 09:54:16;;;;;;;21.23;16.08;;;;;;;;;;6305338;22;20038;-80
2022/10/12 09:56:43;;;;;;;22.13;16.42;;;;;;;;;;6305858;22;19999;-81
2022/10/12 09:59:22;;;;;;;18.33;15.45;;;;;;;;;;6277804;22;20330;-80
2022/10/12 10:02:06;;;;;;;17.65;14.90;;;;;;;;;;6304838;22;19999;-83
2022/10/12 10:04:33;;;;;;;15.90;13.70;;;;;;;;;;6305335;22;20053;-83
2022/10/12 10:07:29;;;;;;;15.45;13.68;;;;;;;;;;6304361;22;19999;-82
2022/10/12 10:10:14;;;;;;;29.27;25.73;;;;;;;;;;6302178;22;20038;-82
2022/10/12 10:12:43;;;;;;;17.35;15.40;;;;;;;;;;6304379;22;20011;-82
2022/10/12 10:15:18;;;;;;;18.48;15.13;;;;;;;;;;6304224;22;20007;-80
2022/10/12 10:17:48;;;;;;;16.48;14.88;;;;;;;;;;6304662;22;20007;-81
2022/10/12 10:20:21;;;;;;;16.05;14.35;;;;;;;;;;6304727;22;20331;-83
2022/10/12 10:22:48;;;;;;;14.45;12.95;;;;;;;;;;6305432;22;20037;-85
2022/10/12 10:25:19;;;;;;;19.05;14.82;;;;;;;;;;6303918;22;20081;-82
2022/10/12 10:27:45;;;;;;;16.77;13.98;;;;;;;;;;6304309;22;20434;-85
2022/10/12 10:30:15;;;;;;;15.32;13.75;;;;;;;;;;6305004;22;20177;-81
2022/10/12 10:32:45;;;;;;;16.15;14.55;;;;;;;;;;6276621;22;20426;-83
2022/10/12 10:35:14;;;;;;;18.85;15.57;;;;;;;;;;6305863;22;20003;-81
2022/10/12 10:38:03;;;;;;;17.35;13.70;;;;;;;;;;6277835;22;20050;-82
2022/10/12 10:40:31;;;;;;;17.48;13.85;;;;;;;;;;6304049;22;20418;-80
2022/10/12 10:42:58;;;;;;;15.48;13.88;;;;;;;;;;6304118;22;19999;-81
2022/10/12 10:45:30;;;;;;;15.82;13.98;;;;;;;;;;6304830;22;20296;-76
2022/10/12 10:48:00;;;;;;;85.70;38.15;;;;;;;;;;6277286;22;20431;-79
2022/10/12 10:50:37;;;;;;;65.15;31.65;;;;;;;;;;6305506;22;20037;-81
2022/10/12 10:53:22;;;;;;;123.38;48.58;;;;;;;;;;6304841;22;19999;-82
2022/10/12 10:55:54;;;;;;;105.55;42.85;;;;;;;;;;6305200;22;20427;-80
2022/10/12 10:58:27;;;;;;;80.03;37.42;;;;;;;;;;6304637;22;20660;-78
2022/10/12 11:00:56;;;;;;;99.03;41.10;;;;;;;;;;6305167;22;20376;-78
2022/10/12 11:03:22;;;;;;;232.93;79.80;;;;;;;;;;6305272;22;20000;-80
2022/10/12 11:05:56;;;;;;;163.82;60.88;;;;;;;;;;6305605;22;20022;-75
2022/10/12 11:08:25;;;;;;;197.70;71.47;;;;;;;;;;6305363;22;19999;-78
2022/10/12 11:10:54;;;;;;;137.82;54.33;;;;;;;;;;6304834;22;20057;-82
2022/10/12 11:13:38;;;;;;;58.45;26.95;;;;;;;;;;6304133;22;19999;-80
2022/10/12 11:16:09;;;;;;;41.03;20.92;;;;;;;;;;6304389;22;20029;-80
2022/10/12 11:18:44;;;;;;;43.55;22.52;;;;;;;;;;6305454;22;20076;-80
2022/10/12 11:21:36;;;;;;;35.00;18.75;;;;;;;;;;6304901;22;20445;-83
2022/10/12 11:24:03;;;;;;;28.90;16.08;;;;;;;;;;6231525;22;20031;-81
2022/10/12 11:26:31;;;;;;;29.30;21.52;;;;;;;;;;6303613;22;20437;-81
2022/10/12 11:28:59;;;;;;;26.73;19.85;;;;;;;;;;6303537;22;20283;-81
2022/10/12 11:31:31;;;;;;;27.17;21.05;;;;;;;;;;6303258;22;20072;-80
2022/10/12 11:34:02;;;;;;;22.27;14.25;;;;;;;;;;6304575;22;20015;-78
2022/10/12 11:36:29;;;;;;;16.00;13.65;;;;;;;;;;6305030;22;20026;-82
2022/10/12 11:38:59;;;;;;;18.92;13.55;;;;;;;;;;6304960;22;20382;-82
2022/10/12 11:41:31;;;;;;;15.90;12.43;;;;;;;;;;6304281;22;20011;-81
2022/10/12 11:44:01;;;;;;;14.43;11.13;;;;;;;;;;6277394;22;20054;-80
2022/10/12 11:46:47;;;;;;;24.33;13.85;;;;;;;;;;6304277;22;20010;-83
2022/10/12 11:49:32;;;;;;;17.75;9.88;;;;;;;;;;6305449;22;20007;-81
2022/10/12 11:52:00;;;;;;;19.92;11.82;;;;;;;;;;6304878;22;19999;-80
2022/10/12 11:54:45;;;;;;;16.13;9.93;;;;;;;;;;6304202;22;20510;-79
2022/10/12 11:57:22;;;;;;;23.98;13.52;;;;;;;;;;6306139;22;20029;-79
2022/10/12 12:00:11;;;;;;;18.35;10.50;;;;;;;;;;6303965;22;20022;-80
2022/10/12 12:02:38;;;;;;;12.90;9.55;;;;;;;;;;6304943;22;19999;-80
2022/10/12 12:05:06;;;;;;;14.50;11.18;;;;;;;;;;6306009;22;20331;-79
2022/10/12 12:07:47;;;;;;;12.57;10.32;;;;;;;;;;6305223;22;20031;-79
2022/10/12 12:10:25;;;;;;;22.77;12.52;;;;;;;;;;6306487;22;19996;-79
2022/10/12 12:13:11;;;;;;;12.27;10.02;;;;;;;;;;6305484;22;20006;-79
2022/10/12 12:15:46;;;;;;;26.38;23.70;;;;;;;;;;6277514;22;20010;-80
2022/10/12 12:18:14;;;;;;;20.48;15.18;;;;;;;;;;6304839;22;20034;-80
2022/10/12 12:20:43;;;;;;;27.15;23.70;;;;;;;;;;6305123;22;20007;-80
2022/10/12 12:23:28;;;;;;;22.75;20.05;;;;;;;;;;6305453;22;20010;-83
2022/10/12 12:26:09;;;;;;;20.25;16.45;;;;;;;;;;6305236;22;20007;-82
2022/10/12 12:28:40;;;;;;;18.35;10.63;;;;;;;;;;6304183;22;20013;-80
2022/10/12 12:31:29;;;;;;;15.85;9.98;;;;;;;;;;6305798;22;20003;-79
2022/10/12 12:34:01;;;;;;;14.30;10.95;;;;;;;;;;6294170;22;19999;-79
2022/10/12 12:36:30;;;;;;;13.98;10.45;;;;;;;;;;6277311;22;20011;-83
2022/10/12 12:38:56;;;;;;;12.77;9.45;;;;;;;;;;6305322;22;19999;-72
2022/10/12 12:41:27;;;;;;;14.57;10.85;;;;;;;;;;6304682;22;20333;-82
2022/10/12 12:43:53;;;;;;;11.02;8.73;;;;;;;;;;6277569;22;20010;-82
2022/10/12 12:46:20;;;;;;;16.42;10.68;;;;;;;;;;6305411;22;20007;-82
2022/10/12 12:48:46;;;;;;;11.38;8.77;;;;;;;;;;6306003;22;20007;-82
2022/10/12 12:51:12;;;;;;;15.27;10.70;;;;;;;;;;6308128;22;20022;-82
2022/10/12 12:53:42;;;;;;;16.33;10.38;;;;;;;;;;6308088;22;20003;-82
2022/10/12 12:56:28;;;;;;;396.85;128.75;;;;;;;;;;6307034;22;20003;-80
2022/10/12 12:59:13;;;;;;;453.13;158.48;;;;;;;;;;6285419;22;20058;-82
2022/10/12 13:01:39;;;;;;;;;;;;;;;;;;6280400;22;20011;-79
2022/10/12 13:04:23;;;;;;;343.50;114.85;;;;;;;;;;6307573;22;19899;-81
2022/10/12 13:06:59;;;;;;;233.70;81.82;;;;;;;;;;6279337;22;20585;-80
2022/10/12 13:09:31;;;;;;;43.83;20.83;;;;;;;;;;6306290;22;20007;-79
2022/10/12 13:12:12;;;;;;;16.80;9.93;;;;;;;;;;6278848;22;20002;-80
2022/10/12 13:14:54;;;;;;;34.63;16.25;;;;;;;;;;6305948;22;19995;-79
2022/10/12 13:17:39;;;;;;;12.60;8.32;;;;;;;;;;6306547;22;20026;-80
2022/10/12 13:20:18;;;;;;;10.88;8.70;;;;;;;;;;6305649;22;20078;-81
2022/10/12 13:22:44;;;;;;;12.00;7.78;;;;;;;;;;6306060;22;19992;-81
2022/10/12 13:25:26;;;;;;;10.98;8.82;;;;;;;;;;6305226;22;20418;-80
2022/10/12 13:27:53;;;;;;;12.00;10.60;;;;;;;;;;6305355;22;20033;-81
2022/10/12 13:30:39;;;;;;;13.23;10.07;;;;;;;;;;6306294;22;20018;-81
2022/10/12 13:33:11;;;;;;;11.10;8.25;;;;;;;;;;6285439;22;20006;-81
2022/10/12 13:36:04;;;;;;;9.73;7.88;;;;;;;;;;6303621;22;19996;-81
2022/10/12 13:38:30;;;;;;;12.43;8.40;;;;;;;;;;6274485;22;20308;-79
2022/10/12 13:41:15;;;;;;;11.70;8.52;;;;;;;;;;6305525;22;20007;-79
2022/10/12 13:43:47;;;;;;;9.77;7.72;;;;;;;;;;6305780;22;20003;-79
2022/10/12 13:46:33;;;;;;;11.13;7.15;;;;;;;;;;6304657;22;20003;-80
2022/10/12 13:49:00;;;;;;;9.95;7.50;;;;;;;;;;6307025;22;20034;-80
2022/10/12 13:51:27;;;;;;;17.00;15.18;;;;;;;;;;6306208;22;19999;-80
2022/10/12 13:53:54;;;;;;;14.40;11.05;;;;;;;;;;6308292;22;20070;-80
2022/10/12 13:56:22;;;;;;;12.02;8.55;;;;;;;;;;6307469;22;20007;-79
2022/10/12 13:58:49;;;;;;;9.60;7.82;;;;;;;;;;6306098;22;20037;-80
2022/10/12 14:01:15;;;;;;;9.88;8.23;;;;;;;;;;6306649;22;20061;-80
2022/10/12 14:03:44;;;;;;;7.30;6.57;;;;;;;;;;6307148;22;20003;-80
2022/10/12 14:06:24;;;;;;;10.88;8.02;;;;;;;;;;6306782;22;20056;-80
2022/10/12 14:08:50;;;;;;;8.52;7.57;;;;;;;;;;6304986;22;20011;-80
2022/10/12 14:11:16;;;;;;;9.52;8.27;;;;;;;;;;6307692;22;20029;-80
2022/10/12 14:13:44;;;;;;;9.70;7.57;;;;;;;;;;6307047;22;19995;-80
2022/10/12 14:16:12;;;;;;;8.07;7.22;;;;;;;;;;6307635;22;20427;-80
2022/10/12 14:18:42;;;;;;;12.82;8.15;;;;;;;;;;6307944;22;20052;-80
2022/10/12 14:21:17;;;;;;;12.27;10.63;;;;;;;;;;6307509;22;20007;-80
2022/10/12 14:23:45;;;;;;;11.00;9.35;;;;;;;;;;6307536;22;20000;-80
2022/10/12 14:26:21;;;;;;;9.60;7.35;;;;;;;;;;6307390;22;20053;-80
2022/10/12 14:28:47;;;;;;;9.35;7.93;;;;;;;;;;6306943;22;20006;-80
2022/10/12 14:31:13;;;;;;;12.48;7.60;;;;;;;;;;6306888;22;20490;-80
2022/10/12 14:33:39;;;;;;;9.25;8.35;;;;;;;;;;6307673;22;20023;-80
2022/10/12 14:36:24;;;;;;;10.18;7.68;;;;;;;;;;6307047;22;19999;-80